createdAt,value
2018-09-12T00:03:32.793Z,18.30
2018-09-12T00:06:00.802Z,18.30
2018-09-12T00:08:28.846Z,18.20
2018-09-12T00:10:56.862Z,18.20
2018-09-12T00:13:24.878Z,18.00
2018-09-12T00:15:52.891Z,17.90
2018-09-12T00:18:21.956Z,17.80
2018-09-12T00:28:13.619Z,17.50
2018-09-12T00:30:41.729Z,17.40
2018-09-12T00:33:09.744Z,17.40
2018-09-12T00:35:37.775Z,17.30
2018-09-12T00:40:33.631Z,17.30
2018-09-12T00:43:01.645Z,17.20
2018-09-12T00:50:25.379Z,17.00
2018-09-12T00:55:21.228Z,17.20
2018-09-12T01:02:44.940Z,16.80
2018-09-12T01:05:12.964Z,16.80
2018-09-12T01:07:40.970Z,16.90
2018-09-12T01:15:04.794Z,16.90
2018-09-12T01:20:00.642Z,16.80
2018-09-12T01:22:28.663Z,16.70
2018-09-12T01:24:56.684Z,16.20
2018-09-12T01:27:24.700Z,16.70
2018-09-12T01:32:20.547Z,16.60
2018-09-12T01:44:39.943Z,16.70
2018-09-12T01:47:07.949Z,16.80
2018-09-12T01:49:35.963Z,16.70
2018-09-12T01:52:03.971Z,16.80
2018-09-12T01:54:31.987Z,16.70
2018-09-12T01:59:27.864Z,16.60
2018-09-12T02:06:51.718Z,16.60
2018-09-12T02:11:47.574Z,16.60
2018-09-12T02:14:15.595Z,16.60
2018-09-12T02:16:43.602Z,16.50
2018-09-12T02:19:11.623Z,16.50
2018-09-12T02:21:39.636Z,16.50
2018-09-12T02:24:07.662Z,16.50
2018-09-12T02:26:35.666Z,16.50
2018-09-12T02:29:03.688Z,16.60
2018-09-12T02:31:31.695Z,16.50
2018-09-12T02:38:57.688Z,16.40
2018-09-12T02:43:54.083Z,16.30
2018-09-12T02:56:14.104Z,16.50
2018-09-12T02:58:43.131Z,16.10
2018-09-12T03:01:11.166Z,16.10
2018-09-12T03:03:39.180Z,16.10
2018-09-12T03:11:02.909Z,16.30
2018-09-12T03:13:30.910Z,16.30
2018-09-12T03:15:58.996Z,16.30
2018-09-12T03:20:55.235Z,16.30
2018-09-12T03:23:23.204Z,17.10
2018-09-12T03:25:51.224Z,16.50
2018-09-12T03:28:19.234Z,16.40
2018-09-12T03:35:42.935Z,16.40
2018-09-12T03:45:34.562Z,16.20
2018-09-12T03:48:02.617Z,16.20
2018-09-12T03:50:30.615Z,16.20
2018-09-12T03:52:58.644Z,16.10
2018-09-12T03:55:26.663Z,16.20
2018-09-12T03:57:54.736Z,16.10
2018-09-12T04:00:22.763Z,16.20
2018-09-12T04:02:51.220Z,16.20
2018-09-12T04:05:19.251Z,16.20
2018-09-12T04:17:38.711Z,16.10
2018-09-12T04:20:06.875Z,16.00
2018-09-12T04:22:34.891Z,16.00
2018-09-12T04:27:30.766Z,15.90
2018-09-12T04:29:58.792Z,15.90
2018-09-12T04:32:27.044Z,15.90
2018-09-12T04:37:23.155Z,16.20
2018-09-12T04:47:14.686Z,15.70
2018-09-12T04:49:42.711Z,15.80
2018-09-12T04:52:10.711Z,15.70
2018-09-12T04:54:38.786Z,14.90
2018-09-12T04:57:06.870Z,15.70
2018-09-12T04:59:35.398Z,15.70
2018-09-12T05:02:03.460Z,15.70
2018-09-12T05:04:31.464Z,15.70
2018-09-12T05:06:59.486Z,15.80
2018-09-12T05:09:27.491Z,15.80
2018-09-12T05:11:55.526Z,15.80
2018-09-12T05:14:23.554Z,15.90
2018-09-12T05:16:51.571Z,16.00
2018-09-12T05:19:19.584Z,16.10
2018-09-12T05:21:47.600Z,16.20
2018-09-12T05:24:15.611Z,16.30
2018-09-12T05:26:43.636Z,16.40
2018-09-12T05:29:11.646Z,16.40
2018-09-12T05:31:39.668Z,16.50
2018-09-12T05:34:07.683Z,16.70
2018-09-12T05:36:35.712Z,17.00
2018-09-12T05:39:05.572Z,17.50
2018-09-12T05:41:33.587Z,18.20
2018-09-12T05:44:01.600Z,18.90
2018-09-12T05:46:29.622Z,19.50
2018-09-12T05:48:57.627Z,20.10
2018-09-12T05:51:25.648Z,20.50
2018-09-12T05:53:53.653Z,20.80
2018-09-12T05:56:21.665Z,21.00
2018-09-12T05:58:49.692Z,21.40
2018-09-12T06:01:17.710Z,21.60
2018-09-12T06:03:45.715Z,21.80
2018-09-12T06:06:13.791Z,22.10
2018-09-12T06:08:41.803Z,22.50
2018-09-12T06:11:09.835Z,22.60
2018-09-12T06:13:37.883Z,22.70
2018-09-12T06:16:06.114Z,22.70
2018-09-12T06:18:34.139Z,22.70
2018-09-12T06:21:02.163Z,22.70
2018-09-12T06:23:30.371Z,22.70
2018-09-12T06:25:58.402Z,22.70
2018-09-12T06:28:26.660Z,22.50
2018-09-12T06:30:54.720Z,22.70
2018-09-12T06:33:22.775Z,22.50
2018-09-12T06:35:50.795Z,22.50
2018-09-12T06:38:18.837Z,22.60
2018-09-12T06:40:46.831Z,22.70
2018-09-12T06:43:14.840Z,23.00
2018-09-12T06:45:42.851Z,22.90
2018-09-12T06:48:10.860Z,22.80
2018-09-12T06:50:38.885Z,22.80
2018-09-12T06:53:06.895Z,22.90
2018-09-12T06:55:34.932Z,22.60
2018-09-12T06:58:02.939Z,22.60
2018-09-12T07:00:31.049Z,22.60
2018-09-12T07:02:59.006Z,22.70
2018-09-12T07:05:27.197Z,22.70
2018-09-12T07:07:55.211Z,22.80
2018-09-12T07:10:23.231Z,23.10
2018-09-12T07:12:51.248Z,23.20
2018-09-12T07:15:19.254Z,23.40
2018-09-12T07:17:47.274Z,23.40
2018-09-12T07:20:15.274Z,23.50
2018-09-12T07:22:43.292Z,23.70
2018-09-12T07:25:11.296Z,23.60
2018-09-12T07:27:39.337Z,24.00
2018-09-12T07:30:07.335Z,24.20
2018-09-12T07:32:35.360Z,24.10
2018-09-12T07:35:03.379Z,24.00
2018-09-12T07:37:31.404Z,24.00
2018-09-12T07:39:59.419Z,24.20
2018-09-12T07:42:27.455Z,24.10
2018-09-12T07:44:55.456Z,24.00
2018-09-12T07:47:23.480Z,23.80
2018-09-12T07:49:51.523Z,23.60
2018-09-12T07:52:19.540Z,23.30
2018-09-12T07:54:47.543Z,23.30
2018-09-12T07:57:15.571Z,23.30
2018-09-12T07:59:43.575Z,23.30
2018-09-12T08:02:11.599Z,23.30
2018-09-12T08:04:39.599Z,23.10
2018-09-12T08:07:07.623Z,22.90
2018-09-12T08:09:35.651Z,23.00
2018-09-12T08:12:03.679Z,23.20
2018-09-12T08:14:31.685Z,23.20
2018-09-12T08:16:59.786Z,23.00
2018-09-12T08:21:55.582Z,23.00
2018-09-12T08:24:23.599Z,23.10
2018-09-12T08:26:51.655Z,23.20
2018-09-12T08:29:19.660Z,23.20
2018-09-12T08:31:47.676Z,23.40
2018-09-12T08:34:15.683Z,23.50
2018-09-12T08:36:43.708Z,24.20
2018-09-12T08:39:11.714Z,24.20
2018-09-12T08:41:39.732Z,24.70
2018-09-12T08:44:07.882Z,25.20
2018-09-12T08:46:35.898Z,25.30
2018-09-12T08:49:04.303Z,25.60
2018-09-12T08:51:32.347Z,25.40
2018-09-12T08:54:00.471Z,25.40
2018-09-12T08:56:28.479Z,25.30
2018-09-12T08:58:56.783Z,25.50
2018-09-12T09:01:24.865Z,25.80
2018-09-12T09:03:52.835Z,25.90
2018-09-12T09:06:20.844Z,26.20
2018-09-12T09:08:48.863Z,26.50
2018-09-12T09:11:16.883Z,26.50
2018-09-12T09:13:44.905Z,26.60
2018-09-12T09:16:12.915Z,26.60
2018-09-12T09:18:40.944Z,26.80
2018-09-12T09:21:08.953Z,26.90
2018-09-12T09:23:36.986Z,27.10
2018-09-12T09:26:05.003Z,27.20
2018-09-12T09:28:33.020Z,27.40
2018-09-12T09:31:01.023Z,27.40
2018-09-12T09:33:29.048Z,27.00
2018-09-12T09:35:57.067Z,27.00
2018-09-12T09:38:25.091Z,27.10
2018-09-12T09:40:53.128Z,27.20
2018-09-12T09:43:21.175Z,27.50
2018-09-12T09:45:49.184Z,27.20
2018-09-12T09:48:17.275Z,26.90
2018-09-12T09:50:45.230Z,26.80
2018-09-12T09:53:13.251Z,26.90
2018-09-12T09:55:41.262Z,26.90
2018-09-12T09:58:09.292Z,27.10
2018-09-12T10:00:42.903Z,27.10
2018-09-12T10:03:16.478Z,27.40
2018-09-12T10:05:50.106Z,27.50
2018-09-12T10:08:23.666Z,27.50
2018-09-12T10:10:51.686Z,27.70
2018-09-12T10:13:19.710Z,27.70
2018-09-12T10:15:47.713Z,27.90
2018-09-12T10:18:15.727Z,27.90
2018-09-12T10:20:43.746Z,28.30
2018-09-12T10:23:11.769Z,28.70
2018-09-12T10:25:39.783Z,29.10
2018-09-12T10:28:07.807Z,29.10
2018-09-12T10:30:36.395Z,28.30
2018-09-12T10:33:04.419Z,27.60
2018-09-12T10:35:32.428Z,27.60
2018-09-12T10:38:00.495Z,27.60
2018-09-12T10:40:28.499Z,27.00
2018-09-12T10:42:56.524Z,26.30
2018-09-12T10:45:24.567Z,25.90
2018-09-12T10:47:52.587Z,25.60
2018-09-12T10:50:20.595Z,25.60
2018-09-12T10:52:48.616Z,25.50
2018-09-12T10:55:16.652Z,25.50
2018-09-12T10:57:44.684Z,25.50
2018-09-12T11:00:12.702Z,25.40
2018-09-12T11:02:40.709Z,25.40
2018-09-12T11:05:08.743Z,25.30
2018-09-12T11:07:36.747Z,25.10
2018-09-12T11:10:04.896Z,25.00
2018-09-12T11:12:32.945Z,24.90
2018-09-12T11:15:00.984Z,24.80
2018-09-12T11:17:29.011Z,24.80
2018-09-12T11:19:57.030Z,24.70
2018-09-12T11:22:25.052Z,24.60
2018-09-12T11:24:53.074Z,24.60
2018-09-12T11:27:21.410Z,24.60
2018-09-12T11:29:49.430Z,24.50
2018-09-12T11:32:17.446Z,24.40
2018-09-12T11:34:46.149Z,24.30
2018-09-12T11:37:14.150Z,24.20
2018-09-12T11:39:42.159Z,24.10
2018-09-12T11:42:10.248Z,24.10
2018-09-12T11:44:38.263Z,24.10
2018-09-12T11:47:06.380Z,24.10
2018-09-12T11:49:34.392Z,24.10
2018-09-12T11:52:02.436Z,24.10
2018-09-12T11:54:30.455Z,24.10
2018-09-12T11:56:58.459Z,24.10
2018-09-12T11:59:26.476Z,24.20
2018-09-12T12:01:54.484Z,24.30
2018-09-12T12:04:22.497Z,24.40
2018-09-12T12:06:50.708Z,24.70
2018-09-12T12:09:18.731Z,24.60
2018-09-12T12:11:46.750Z,24.40
2018-09-12T12:14:14.759Z,24.30
2018-09-12T12:16:42.802Z,24.00
2018-09-12T12:19:10.786Z,23.90
2018-09-12T12:21:38.840Z,23.70
2018-09-12T12:24:06.835Z,23.70
2018-09-12T12:26:34.864Z,23.60
2018-09-12T12:29:02.905Z,23.50
2018-09-12T12:31:30.919Z,23.40
2018-09-12T12:33:58.930Z,23.30
2018-09-12T12:36:26.938Z,23.00
2018-09-12T12:38:54.955Z,22.50
2018-09-12T12:41:23.030Z,22.10
2018-09-12T12:43:50.991Z,21.60
2018-09-12T12:46:18.998Z,21.30
2018-09-12T12:48:47.013Z,21.10
2018-09-12T12:51:15.095Z,21.00
2018-09-12T12:53:43.106Z,20.90
2018-09-12T12:56:11.118Z,20.80
2018-09-12T12:58:39.133Z,20.90
2018-09-12T13:01:07.258Z,20.90
2018-09-12T13:03:40.428Z,21.00
2018-09-12T13:06:13.550Z,21.00
2018-09-12T13:08:41.871Z,21.00
2018-09-12T13:11:09.967Z,21.10
2018-09-12T13:13:37.984Z,21.20
2018-09-12T13:16:06.259Z,21.20
2018-09-12T13:18:34.282Z,21.20
2018-09-12T13:21:02.296Z,21.20
2018-09-12T13:23:30.338Z,21.20
2018-09-12T13:25:58.359Z,20.90
2018-09-12T13:28:26.539Z,20.80
2018-09-12T13:30:54.567Z,20.70
2018-09-12T13:33:23.063Z,20.70
2018-09-12T13:35:51.071Z,20.50
2018-09-12T13:38:19.080Z,20.40
2018-09-12T13:40:47.111Z,20.30
2018-09-12T13:43:15.132Z,20.30
2018-09-12T13:45:43.220Z,20.40
2018-09-12T13:48:11.220Z,20.40
2018-09-12T13:50:39.231Z,20.60
2018-09-12T13:53:07.239Z,20.80
2018-09-12T13:55:35.260Z,20.80
2018-09-12T13:58:03.272Z,20.90
2018-09-12T14:00:31.902Z,20.90
2018-09-12T14:03:01.250Z,20.80
2018-09-12T14:05:29.394Z,20.70
2018-09-12T14:07:57.416Z,20.70
2018-09-12T14:10:25.439Z,20.60
2018-09-12T14:12:53.736Z,20.40
2018-09-12T14:15:21.842Z,20.30
2018-09-12T14:17:49.933Z,20.10
2018-09-12T14:20:17.954Z,20.00
2018-09-12T14:22:46.004Z,19.80
2018-09-12T14:25:14.134Z,19.70
2018-09-12T14:27:42.153Z,19.60
2018-09-12T14:30:10.236Z,19.60
2018-09-12T14:32:38.231Z,19.60
2018-09-12T14:35:06.299Z,19.60
2018-09-12T14:37:34.306Z,19.50
2018-09-12T14:40:02.364Z,19.30
2018-09-12T14:42:30.367Z,19.10
2018-09-12T14:44:58.396Z,19.00
2018-09-12T14:47:26.579Z,19.00
2018-09-12T14:49:54.591Z,19.00
2018-09-12T14:52:22.677Z,19.00
2018-09-12T14:54:50.688Z,19.00
2018-09-12T14:57:18.702Z,19.00
2018-09-12T14:59:46.720Z,19.00
2018-09-12T15:02:14.723Z,19.00
2018-09-12T15:04:42.742Z,19.00
2018-09-12T15:07:10.747Z,18.90
2018-09-12T15:09:38.850Z,18.90
2018-09-12T15:12:06.878Z,18.80
2018-09-12T15:14:34.890Z,18.80
2018-09-12T15:17:02.907Z,18.70
2018-09-12T15:19:30.919Z,18.70
2018-09-12T15:21:58.938Z,18.60
2018-09-12T15:24:26.950Z,18.50
2018-09-12T15:26:54.997Z,18.40
2018-09-12T15:29:23.026Z,18.30
2018-09-12T15:31:51.114Z,18.30
2018-09-12T15:34:19.174Z,18.20
2018-09-12T15:36:47.272Z,18.10
2018-09-12T15:39:16.850Z,18.00
2018-09-12T15:41:44.880Z,17.90
2018-09-12T15:44:12.887Z,17.80
2018-09-12T15:46:40.999Z,17.80
2018-09-12T15:49:09.007Z,17.60
2018-09-12T15:51:37.027Z,17.60
2018-09-12T15:54:05.071Z,17.60
2018-09-12T15:56:33.152Z,17.50
2018-09-12T15:59:01.346Z,17.40
2018-09-12T16:01:29.367Z,17.30
